Hawk Lake, Canada
Current Conditions -  °F | °C
As of 7:00 AM on Saturday 25 Oct 2014 (Local Time) from CYQK Reporting Station
Clear Clear  
Wind Chill: 37°   Ceiling: Unl
Heat Index: 43°   Visibility: 15mi
Dew Point: 32°   Wind: 9mph
Humidity: 66%   Direction: 270°W
Pressure: 29.82"   Gusts: 17mph
Location:  49.8°N, 94.01°W
Report Text: CYQK 251200Z 27008G15KT 15SM SKC 06/00 A2982 RMK SLP105
Loading
Personal Weather Stations






























Interactive Weather Map
Tropical Storm Tracking
New forecast layout! Learn more

10-Day Weather Forecast

Advertisements
Track Severe Weather on mobile